sensor_id;sensor_type;location;lat;lon;timestamp;P1;durP1;ratioP1;P2;durP2;ratioP2
76610;SDS011;65503;48.534;9.062;2023-08-21T00:00:46;12.02;;;8.95;;
76610;SDS011;65503;48.534;9.062;2023-08-21T00:03:12;13.27;;;9.82;;
76610;SDS011;65503;48.534;9.062;2023-08-21T00:05:39;12.18;;;9.23;;
76610;SDS011;65503;48.534;9.062;2023-08-21T00:08:06;12.73;;;9.00;;
76610;SDS011;65503;48.534;9.062;2023-08-21T00:10:33;12.10;;;9.93;;
76610;SDS011;65503;48.534;9.062;2023-08-21T00:13:04;11.50;;;9.60;;
76610;SDS011;65503;48.534;9.062;2023-08-21T00:15:31;12.25;;;9.25;;
76610;SDS011;65503;48.534;9.062;2023-08-21T00:17:57;11.63;;;8.82;;
76610;SDS011;65503;48.534;9.062;2023-08-21T00:22:51;12.18;;;8.68;;
76610;SDS011;65503;48.534;9.062;2023-08-21T00:25:17;13.30;;;9.38;;
76610;SDS011;65503;48.534;9.062;2023-08-21T00:27:44;12.98;;;9.35;;
76610;SDS011;65503;48.534;9.062;2023-08-21T00:30:11;13.43;;;10.40;;
76610;SDS011;65503;48.534;9.062;2023-08-21T00:35:04;12.30;;;9.38;;
76610;SDS011;65503;48.534;9.062;2023-08-21T00:37:31;12.20;;;9.05;;
76610;SDS011;65503;48.534;9.062;2023-08-21T00:39:57;12.60;;;9.40;;
76610;SDS011;65503;48.534;9.062;2023-08-21T00:42:24;12.63;;;9.45;;
76610;SDS011;65503;48.534;9.062;2023-08-21T00:44:50;13.15;;;9.95;;
76610;SDS011;65503;48.534;9.062;2023-08-21T00:47:17;12.55;;;10.02;;
76610;SDS011;65503;48.534;9.062;2023-08-21T00:49:45;11.95;;;9.07;;
76610;SDS011;65503;48.534;9.062;2023-08-21T00:52:12;14.50;;;10.02;;
76610;SDS011;65503;48.534;9.062;2023-08-21T00:54:41;13.98;;;9.25;;
76610;SDS011;65503;48.534;9.062;2023-08-21T00:57:08;10.43;;;8.68;;
76610;SDS011;65503;48.534;9.062;2023-08-21T01:02:01;11.90;;;9.52;;
76610;SDS011;65503;48.534;9.062;2023-08-21T01:04:28;12.15;;;10.07;;
76610;SDS011;65503;48.534;9.062;2023-08-21T01:06:54;11.02;;;9.40;;
76610;SDS011;65503;48.534;9.062;2023-08-21T01:15:01;12.20;;;9.38;;
76610;SDS011;65503;48.534;9.062;2023-08-21T01:17:36;12.55;;;9.48;;
76610;SDS011;65503;48.534;9.062;2023-08-21T01:20:06;12.40;;;9.70;;
76610;SDS011;65503;48.534;9.062;2023-08-21T01:22:39;13.32;;;9.68;;
76610;SDS011;65503;48.534;9.062;2023-08-21T01:25:07;11.65;;;9.73;;
76610;SDS011;65503;48.534;9.062;2023-08-21T01:27:35;11.82;;;9.80;;
76610;SDS011;65503;48.534;9.062;2023-08-21T01:30:02;12.25;;;9.98;;
76610;SDS011;65503;48.534;9.062;2023-08-21T01:32:37;13.73;;;10.13;;
76610;SDS011;65503;48.534;9.062;2023-08-21T01:35:06;11.63;;;9.60;;
76610;SDS011;65503;48.534;9.062;2023-08-21T01:37:35;13.20;;;9.82;;
76610;SDS011;65503;48.534;9.062;2023-08-21T01:40:02;11.30;;;9.30;;
76610;SDS011;65503;48.534;9.062;2023-08-21T01:44:55;12.02;;;9.60;;
76610;SDS011;65503;48.534;9.062;2023-08-21T01:47:22;12.05;;;9.73;;
76610;SDS011;65503;48.534;9.062;2023-08-21T01:49:49;12.98;;;10.70;;
76610;SDS011;65503;48.534;9.062;2023-08-21T01:52:18;12.32;;;9.93;;
76610;SDS011;65503;48.534;9.062;2023-08-21T01:54:45;13.93;;;10.27;;
76610;SDS011;65503;48.534;9.062;2023-08-21T01:57:14;14.00;;;9.90;;
76610;SDS011;65503;48.534;9.062;2023-08-21T01:59:40;14.32;;;10.57;;
76610;SDS011;65503;48.534;9.062;2023-08-21T02:02:07;13.75;;;10.38;;
76610;SDS011;65503;48.534;9.062;2023-08-21T02:07:01;15.85;;;10.20;;
76610;SDS011;65503;48.534;9.062;2023-08-21T02:09:27;13.45;;;9.95;;
76610;SDS011;65503;48.534;9.062;2023-08-21T02:11:54;13.73;;;11.02;;
76610;SDS011;65503;48.534;9.062;2023-08-21T02:14:21;14.38;;;9.65;;
76610;SDS011;65503;48.534;9.062;2023-08-21T02:16:47;11.95;;;9.88;;
76610;SDS011;65503;48.534;9.062;2023-08-21T02:19:14;13.68;;;10.30;;
76610;SDS011;65503;48.534;9.062;2023-08-21T02:21:40;13.23;;;10.95;;
76610;SDS011;65503;48.534;9.062;2023-08-21T02:24:07;12.73;;;10.05;;
76610;SDS011;65503;48.534;9.062;2023-08-21T02:26:34;16.48;;;10.23;;
76610;SDS011;65503;48.534;9.062;2023-08-21T02:29:00;13.48;;;10.88;;
76610;SDS011;65503;48.534;9.062;2023-08-21T02:31:27;11.65;;;10.00;;
76610;SDS011;65503;48.534;9.062;2023-08-21T02:33:53;11.82;;;9.98;;
76610;SDS011;65503;48.534;9.062;2023-08-21T02:36:20;13.13;;;10.52;;
76610;SDS011;65503;48.534;9.062;2023-08-21T02:38:46;14.75;;;10.43;;
76610;SDS011;65503;48.534;9.062;2023-08-21T02:41:13;15.05;;;10.63;;
76610;SDS011;65503;48.534;9.062;2023-08-21T02:43:43;14.52;;;10.80;;
76610;SDS011;65503;48.534;9.062;2023-08-21T02:46:09;12.85;;;10.15;;
76610;SDS011;65503;48.534;9.062;2023-08-21T02:48:36;13.35;;;10.73;;
76610;SDS011;65503;48.534;9.062;2023-08-21T02:51:02;14.73;;;10.85;;
76610;SDS011;65503;48.534;9.062;2023-08-21T02:53:31;12.85;;;10.20;;
76610;SDS011;65503;48.534;9.062;2023-08-21T02:55:58;13.23;;;11.00;;
76610;SDS011;65503;48.534;9.062;2023-08-21T02:58:24;13.70;;;10.57;;
76610;SDS011;65503;48.534;9.062;2023-08-21T03:00:51;13.25;;;10.05;;
76610;SDS011;65503;48.534;9.062;2023-08-21T03:03:17;12.68;;;9.55;;
76610;SDS011;65503;48.534;9.062;2023-08-21T03:05:44;16.20;;;11.23;;
76610;SDS011;65503;48.534;9.062;2023-08-21T03:08:11;14.48;;;10.63;;
76610;SDS011;65503;48.534;9.062;2023-08-21T03:10:37;14.57;;;11.30;;
76610;SDS011;65503;48.534;9.062;2023-08-21T03:13:04;14.45;;;10.52;;
76610;SDS011;65503;48.534;9.062;2023-08-21T03:15:30;14.32;;;11.40;;
76610;SDS011;65503;48.534;9.062;2023-08-21T03:17:57;12.75;;;10.35;;
76610;SDS011;65503;48.534;9.062;2023-08-21T03:20:24;12.38;;;10.32;;
76610;SDS011;65503;48.534;9.062;2023-08-21T03:22:50;13.77;;;10.68;;
76610;SDS011;65503;48.534;9.062;2023-08-21T03:25:17;13.25;;;11.50;;
76610;SDS011;65503;48.534;9.062;2023-08-21T03:27:43;14.25;;;11.18;;
76610;SDS011;65503;48.534;9.062;2023-08-21T03:30:15;14.02;;;11.35;;
76610;SDS011;65503;48.534;9.062;2023-08-21T03:32:42;12.75;;;11.00;;
76610;SDS011;65503;48.534;9.062;2023-08-21T03:35:09;14.15;;;11.40;;
76610;SDS011;65503;48.534;9.062;2023-08-21T03:37:35;13.95;;;11.10;;
76610;SDS011;65503;48.534;9.062;2023-08-21T03:40:03;14.00;;;10.52;;
76610;SDS011;65503;48.534;9.062;2023-08-21T03:42:30;13.43;;;10.80;;
76610;SDS011;65503;48.534;9.062;2023-08-21T03:44:56;14.07;;;11.10;;
76610;SDS011;65503;48.534;9.062;2023-08-21T03:47:23;13.75;;;10.57;;
76610;SDS011;65503;48.534;9.062;2023-08-21T03:49:49;14.63;;;10.93;;
76610;SDS011;65503;48.534;9.062;2023-08-21T03:52:16;16.08;;;11.40;;
76610;SDS011;65503;48.534;9.062;2023-08-21T03:54:42;14.27;;;10.80;;
76610;SDS011;65503;48.534;9.062;2023-08-21T03:57:09;12.95;;;11.18;;
76610;SDS011;65503;48.534;9.062;2023-08-21T03:59:36;18.60;;;12.60;;
76610;SDS011;65503;48.534;9.062;2023-08-21T04:04:29;15.55;;;11.15;;
76610;SDS011;65503;48.534;9.062;2023-08-21T04:06:56;14.82;;;12.20;;
76610;SDS011;65503;48.534;9.062;2023-08-21T04:09:22;14.38;;;11.23;;
76610;SDS011;65503;48.534;9.062;2023-08-21T04:11:49;15.52;;;12.15;;
76610;SDS011;65503;48.534;9.062;2023-08-21T04:14:15;14.60;;;11.75;;
76610;SDS011;65503;48.534;9.062;2023-08-21T04:16:42;14.32;;;11.13;;
76610;SDS011;65503;48.534;9.062;2023-08-21T04:19:09;15.30;;;11.93;;
76610;SDS011;65503;48.534;9.062;2023-08-21T04:21:35;14.07;;;11.27;;
76610;SDS011;65503;48.534;9.062;2023-08-21T04:24:02;14.57;;;12.05;;
76610;SDS011;65503;48.534;9.062;2023-08-21T04:26:29;15.35;;;12.40;;
76610;SDS011;65503;48.534;9.062;2023-08-21T04:28:55;16.08;;;12.05;;
76610;SDS011;65503;48.534;9.062;2023-08-21T04:31:22;20.80;;;12.52;;
76610;SDS011;65503;48.534;9.062;2023-08-21T04:33:48;15.85;;;12.30;;
76610;SDS011;65503;48.534;9.062;2023-08-21T04:36:15;15.93;;;11.32;;
76610;SDS011;65503;48.534;9.062;2023-08-21T04:38:43;15.93;;;12.15;;
76610;SDS011;65503;48.534;9.062;2023-08-21T04:43:36;16.52;;;11.45;;
76610;SDS011;65503;48.534;9.062;2023-08-21T04:46:03;17.48;;;11.65;;
76610;SDS011;65503;48.534;9.062;2023-08-21T04:48:30;14.43;;;11.88;;
76610;SDS011;65503;48.534;9.062;2023-08-21T04:50:57;14.73;;;11.10;;
76610;SDS011;65503;48.534;9.062;2023-08-21T04:53:23;13.82;;;11.13;;
76610;SDS011;65503;48.534;9.062;2023-08-21T04:55:50;16.08;;;11.57;;
76610;SDS011;65503;48.534;9.062;2023-08-21T04:58:16;14.65;;;10.88;;
76610;SDS011;65503;48.534;9.062;2023-08-21T05:00:46;13.90;;;11.23;;
76610;SDS011;65503;48.534;9.062;2023-08-21T05:03:13;14.13;;;11.32;;
76610;SDS011;65503;48.534;9.062;2023-08-21T05:05:40;15.13;;;11.55;;
76610;SDS011;65503;48.534;9.062;2023-08-21T05:08:06;14.15;;;11.32;;
76610;SDS011;65503;48.534;9.062;2023-08-21T05:10:33;14.13;;;10.93;;
76610;SDS011;65503;48.534;9.062;2023-08-21T05:12:59;13.48;;;10.82;;
76610;SDS011;65503;48.534;9.062;2023-08-21T05:15:26;13.45;;;10.73;;
76610;SDS011;65503;48.534;9.062;2023-08-21T05:17:52;13.07;;;10.40;;
76610;SDS011;65503;48.534;9.062;2023-08-21T05:20:19;14.35;;;10.60;;
76610;SDS011;65503;48.534;9.062;2023-08-21T05:22:46;15.02;;;10.05;;
76610;SDS011;65503;48.534;9.062;2023-08-21T05:25:12;14.13;;;10.02;;
76610;SDS011;65503;48.534;9.062;2023-08-21T05:27:39;14.50;;;10.10;;
76610;SDS011;65503;48.534;9.062;2023-08-21T05:30:05;14.07;;;10.82;;
76610;SDS011;65503;48.534;9.062;2023-08-21T05:32:32;13.27;;;9.95;;
76610;SDS011;65503;48.534;9.062;2023-08-21T05:34:59;14.77;;;9.70;;
76610;SDS011;65503;48.534;9.062;2023-08-21T05:37:25;12.95;;;10.10;;
76610;SDS011;65503;48.534;9.062;2023-08-21T05:39:53;13.00;;;9.57;;
76610;SDS011;65503;48.534;9.062;2023-08-21T05:42:19;13.73;;;9.60;;
76610;SDS011;65503;48.534;9.062;2023-08-21T05:44:46;14.00;;;10.07;;
76610;SDS011;65503;48.534;9.062;2023-08-21T05:47:12;11.68;;;8.57;;
76610;SDS011;65503;48.534;9.062;2023-08-21T05:49:39;11.90;;;9.18;;
76610;SDS011;65503;48.534;9.062;2023-08-21T05:52:06;11.40;;;8.07;;
76610;SDS011;65503;48.534;9.062;2023-08-21T05:54:32;13.45;;;8.88;;
76610;SDS011;65503;48.534;9.062;2023-08-21T05:56:59;12.63;;;9.05;;
76610;SDS011;65503;48.534;9.062;2023-08-21T05:59:26;13.13;;;8.23;;
76610;SDS011;65503;48.534;9.062;2023-08-21T06:01:56;12.43;;;8.30;;
76610;SDS011;65503;48.534;9.062;2023-08-21T06:04:24;11.90;;;8.20;;
76610;SDS011;65503;48.534;9.062;2023-08-21T06:06:51;10.45;;;7.07;;
76610;SDS011;65503;48.534;9.062;2023-08-21T06:09:17;11.75;;;6.97;;
76610;SDS011;65503;48.534;9.062;2023-08-21T06:11:44;11.48;;;8.43;;
76610;SDS011;65503;48.534;9.062;2023-08-21T06:14:10;9.68;;;7.60;;
76610;SDS011;65503;48.534;9.062;2023-08-21T06:16:37;12.38;;;7.60;;
76610;SDS011;65503;48.534;9.062;2023-08-21T06:21:30;10.45;;;8.10;;
76610;SDS011;65503;48.534;9.062;2023-08-21T06:23:57;10.30;;;7.82;;
76610;SDS011;65503;48.534;9.062;2023-08-21T06:26:23;10.38;;;7.72;;
76610;SDS011;65503;48.534;9.062;2023-08-21T06:28:51;14.68;;;7.53;;
76610;SDS011;65503;48.534;9.062;2023-08-21T06:31:17;13.55;;;7.60;;
76610;SDS011;65503;48.534;9.062;2023-08-21T06:33:44;11.13;;;7.60;;
76610;SDS011;65503;48.534;9.062;2023-08-21T06:36:11;8.82;;;6.80;;
76610;SDS011;65503;48.534;9.062;2023-08-21T06:38:37;10.32;;;7.32;;
76610;SDS011;65503;48.534;9.062;2023-08-21T06:41:04;12.00;;;8.05;;
76610;SDS011;65503;48.534;9.062;2023-08-21T06:43:36;9.68;;;7.60;;
76610;SDS011;65503;48.534;9.062;2023-08-21T06:46:03;10.45;;;7.80;;
76610;SDS011;65503;48.534;9.062;2023-08-21T06:48:29;9.95;;;6.85;;
76610;SDS011;65503;48.534;9.062;2023-08-21T06:53:22;10.50;;;6.20;;
76610;SDS011;65503;48.534;9.062;2023-08-21T06:55:49;10.43;;;6.70;;
76610;SDS011;65503;48.534;9.062;2023-08-21T06:58:15;9.60;;;7.35;;
76610;SDS011;65503;48.534;9.062;2023-08-21T07:00:42;9.05;;;6.50;;
76610;SDS011;65503;48.534;9.062;2023-08-21T07:03:09;8.50;;;6.60;;
76610;SDS011;65503;48.534;9.062;2023-08-21T07:05:36;9.73;;;7.00;;
76610;SDS011;65503;48.534;9.062;2023-08-21T07:08:04;11.38;;;7.10;;
76610;SDS011;65503;48.534;9.062;2023-08-21T07:10:38;10.30;;;6.78;;
76610;SDS011;65503;48.534;9.062;2023-08-21T07:15:31;10.20;;;6.38;;
76610;SDS011;65503;48.534;9.062;2023-08-21T07:17:58;13.35;;;7.47;;
76610;SDS011;65503;48.534;9.062;2023-08-21T07:20:24;8.73;;;5.90;;
76610;SDS011;65503;48.534;9.062;2023-08-21T07:22:51;10.07;;;6.80;;
76610;SDS011;65503;48.534;9.062;2023-08-21T07:25:18;10.13;;;7.38;;
76610;SDS011;65503;48.534;9.062;2023-08-21T07:27:46;11.45;;;7.00;;
76610;SDS011;65503;48.534;9.062;2023-08-21T07:30:12;9.68;;;6.05;;
76610;SDS011;65503;48.534;9.062;2023-08-21T07:32:39;11.90;;;7.03;;
76610;SDS011;65503;48.534;9.062;2023-08-21T07:35:06;9.43;;;7.03;;
76610;SDS011;65503;48.534;9.062;2023-08-21T07:37:33;7.90;;;6.13;;
76610;SDS011;65503;48.534;9.062;2023-08-21T07:39:59;13.35;;;6.90;;
76610;SDS011;65503;48.534;9.062;2023-08-21T07:42:26;8.23;;;6.57;;
76610;SDS011;65503;48.534;9.062;2023-08-21T07:44:53;8.75;;;6.97;;
76610;SDS011;65503;48.534;9.062;2023-08-21T07:47:19;10.80;;;6.25;;
76610;SDS011;65503;48.534;9.062;2023-08-21T07:49:46;10.27;;;7.68;;
76610;SDS011;65503;48.534;9.062;2023-08-21T07:52:13;8.18;;;6.35;;
76610;SDS011;65503;48.534;9.062;2023-08-21T07:54:39;9.07;;;6.57;;
76610;SDS011;65503;48.534;9.062;2023-08-21T07:57:06;9.63;;;6.28;;
76610;SDS011;65503;48.534;9.062;2023-08-21T07:59:32;9.52;;;6.80;;
76610;SDS011;65503;48.534;9.062;2023-08-21T08:01:59;9.93;;;6.43;;
76610;SDS011;65503;48.534;9.062;2023-08-21T08:04:27;12.40;;;6.90;;
76610;SDS011;65503;48.534;9.062;2023-08-21T08:06:53;12.10;;;6.70;;
76610;SDS011;65503;48.534;9.062;2023-08-21T08:09:20;10.02;;;7.05;;
76610;SDS011;65503;48.534;9.062;2023-08-21T08:11:46;10.38;;;6.10;;
76610;SDS011;65503;48.534;9.062;2023-08-21T08:14:13;9.75;;;6.00;;
76610;SDS011;65503;48.534;9.062;2023-08-21T08:16:39;10.15;;;6.78;;
76610;SDS011;65503;48.534;9.062;2023-08-21T08:19:06;10.77;;;6.40;;
76610;SDS011;65503;48.534;9.062;2023-08-21T08:21:34;9.32;;;6.13;;
76610;SDS011;65503;48.534;9.062;2023-08-21T08:24:00;9.27;;;5.90;;
76610;SDS011;65503;48.534;9.062;2023-08-21T08:26:27;8.57;;;6.03;;
76610;SDS011;65503;48.534;9.062;2023-08-21T08:28:53;11.13;;;7.55;;
76610;SDS011;65503;48.534;9.062;2023-08-21T08:31:20;9.55;;;6.40;;
76610;SDS011;65503;48.534;9.062;2023-08-21T08:33:47;10.68;;;6.60;;
76610;SDS011;65503;48.534;9.062;2023-08-21T08:36:14;10.50;;;5.93;;
76610;SDS011;65503;48.534;9.062;2023-08-21T08:38:41;11.30;;;6.00;;
76610;SDS011;65503;48.534;9.062;2023-08-21T08:41:11;9.35;;;6.85;;
76610;SDS011;65503;48.534;9.062;2023-08-21T08:43:45;12.38;;;6.22;;
76610;SDS011;65503;48.534;9.062;2023-08-21T08:46:11;10.50;;;7.07;;
76610;SDS011;65503;48.534;9.062;2023-08-21T08:48:38;9.07;;;6.03;;
76610;SDS011;65503;48.534;9.062;2023-08-21T08:51:05;10.13;;;6.85;;
76610;SDS011;65503;48.534;9.062;2023-08-21T08:53:31;9.77;;;5.65;;
76610;SDS011;65503;48.534;9.062;2023-08-21T08:55:59;8.98;;;6.22;;
76610;SDS011;65503;48.534;9.062;2023-08-21T08:58:25;12.98;;;6.65;;
76610;SDS011;65503;48.534;9.062;2023-08-21T09:00:52;12.85;;;5.95;;
76610;SDS011;65503;48.534;9.062;2023-08-21T09:03:19;9.23;;;5.75;;
76610;SDS011;65503;48.534;9.062;2023-08-21T09:05:46;7.05;;;5.72;;
76610;SDS011;65503;48.534;9.062;2023-08-21T09:08:14;9.63;;;6.20;;
76610;SDS011;65503;48.534;9.062;2023-08-21T09:10:42;8.68;;;6.10;;
76610;SDS011;65503;48.534;9.062;2023-08-21T09:13:12;9.13;;;5.70;;
76610;SDS011;65503;48.534;9.062;2023-08-21T09:15:44;8.43;;;6.38;;
76610;SDS011;65503;48.534;9.062;2023-08-21T09:18:15;8.02;;;5.90;;
76610;SDS011;65503;48.534;9.062;2023-08-21T09:20:42;8.98;;;5.85;;
76610;SDS011;65503;48.534;9.062;2023-08-21T09:23:13;7.57;;;5.45;;
76610;SDS011;65503;48.534;9.062;2023-08-21T09:25:40;9.63;;;5.20;;
76610;SDS011;65503;48.534;9.062;2023-08-21T09:28:08;9.23;;;5.97;;
76610;SDS011;65503;48.534;9.062;2023-08-21T09:30:48;11.82;;;6.35;;
76610;SDS011;65503;48.534;9.062;2023-08-21T09:33:22;9.50;;;6.57;;
76610;SDS011;65503;48.534;9.062;2023-08-21T09:35:53;8.80;;;6.63;;
76610;SDS011;65503;48.534;9.062;2023-08-21T09:38:21;7.80;;;6.07;;
76610;SDS011;65503;48.534;9.062;2023-08-21T09:40:52;9.20;;;6.18;;
76610;SDS011;65503;48.534;9.062;2023-08-21T09:43:20;10.90;;;6.65;;
76610;SDS011;65503;48.534;9.062;2023-08-21T09:45:48;11.63;;;6.38;;
76610;SDS011;65503;48.534;9.062;2023-08-21T09:48:25;10.02;;;5.80;;
76610;SDS011;65503;48.534;9.062;2023-08-21T09:50:56;10.15;;;6.40;;
76610;SDS011;65503;48.534;9.062;2023-08-21T09:53:22;13.63;;;8.27;;
76610;SDS011;65503;48.534;9.062;2023-08-21T09:55:53;8.05;;;5.97;;
76610;SDS011;65503;48.534;9.062;2023-08-21T09:58:21;8.40;;;6.00;;
76610;SDS011;65503;48.534;9.062;2023-08-21T10:00:48;9.30;;;5.78;;
76610;SDS011;65503;48.534;9.062;2023-08-21T10:03:18;16.42;;;7.55;;
76610;SDS011;65503;48.534;9.062;2023-08-21T10:05:47;11.13;;;7.70;;
76610;SDS011;65503;48.534;9.062;2023-08-21T10:08:16;9.70;;;6.68;;
76610;SDS011;65503;48.534;9.062;2023-08-21T10:10:47;10.05;;;6.13;;
76610;SDS011;65503;48.534;9.062;2023-08-21T10:13:14;11.15;;;5.90;;
76610;SDS011;65503;48.534;9.062;2023-08-21T10:15:41;8.93;;;6.72;;
76610;SDS011;65503;48.534;9.062;2023-08-21T10:18:18;10.23;;;6.70;;
76610;SDS011;65503;48.534;9.062;2023-08-21T10:20:46;10.63;;;5.50;;
76610;SDS011;65503;48.534;9.062;2023-08-21T10:26:00;8.90;;;5.63;;
76610;SDS011;65503;48.534;9.062;2023-08-21T10:28:47;8.98;;;6.03;;
76610;SDS011;65503;48.534;9.062;2023-08-21T10:31:25;7.35;;;5.45;;
76610;SDS011;65503;48.534;9.062;2023-08-21T10:33:52;7.50;;;5.68;;
76610;SDS011;65503;48.534;9.062;2023-08-21T10:36:38;9.18;;;5.32;;
76610;SDS011;65503;48.534;9.062;2023-08-21T10:39:15;10.05;;;5.47;;
76610;SDS011;65503;48.534;9.062;2023-08-21T10:41:53;11.25;;;5.45;;
76610;SDS011;65503;48.534;9.062;2023-08-21T10:44:34;9.27;;;6.10;;
76610;SDS011;65503;48.534;9.062;2023-08-21T10:47:23;10.13;;;5.32;;
76610;SDS011;65503;48.534;9.062;2023-08-21T10:50:05;9.65;;;6.40;;
76610;SDS011;65503;48.534;9.062;2023-08-21T10:52:37;10.73;;;6.32;;
76610;SDS011;65503;48.534;9.062;2023-08-21T10:55:09;8.45;;;5.10;;
76610;SDS011;65503;48.534;9.062;2023-08-21T10:57:37;9.20;;;5.05;;
76610;SDS011;65503;48.534;9.062;2023-08-21T11:00:05;8.20;;;5.00;;
76610;SDS011;65503;48.534;9.062;2023-08-21T11:02:41;11.65;;;5.25;;
76610;SDS011;65503;48.534;9.062;2023-08-21T11:05:10;7.90;;;4.65;;
76610;SDS011;65503;48.534;9.062;2023-08-21T11:07:41;10.60;;;5.55;;
76610;SDS011;65503;48.534;9.062;2023-08-21T11:10:14;9.25;;;6.50;;
76610;SDS011;65503;48.534;9.062;2023-08-21T11:12:55;7.82;;;5.00;;
76610;SDS011;65503;48.534;9.062;2023-08-21T11:15:24;10.30;;;5.35;;
76610;SDS011;65503;48.534;9.062;2023-08-21T11:17:55;7.00;;;5.22;;
76610;SDS011;65503;48.534;9.062;2023-08-21T11:20:27;7.47;;;5.55;;
76610;SDS011;65503;48.534;9.062;2023-08-21T11:23:02;8.43;;;4.78;;
76610;SDS011;65503;48.534;9.062;2023-08-21T11:25:33;9.88;;;5.30;;
76610;SDS011;65503;48.534;9.062;2023-08-21T11:28:00;10.80;;;5.43;;
76610;SDS011;65503;48.534;9.062;2023-08-21T11:30:30;9.07;;;5.82;;
76610;SDS011;65503;48.534;9.062;2023-08-21T11:33:04;8.05;;;5.20;;
76610;SDS011;65503;48.534;9.062;2023-08-21T11:35:35;11.23;;;5.93;;
76610;SDS011;65503;48.534;9.062;2023-08-21T11:38:03;10.65;;;5.28;;
76610;SDS011;65503;48.534;9.062;2023-08-21T11:40:34;8.27;;;5.82;;
76610;SDS011;65503;48.534;9.062;2023-08-21T11:43:01;10.40;;;5.97;;
76610;SDS011;65503;48.534;9.062;2023-08-21T11:45:28;10.15;;;6.07;;
76610;SDS011;65503;48.534;9.062;2023-08-21T11:47:57;8.75;;;6.25;;
76610;SDS011;65503;48.534;9.062;2023-08-21T11:50:24;8.70;;;5.72;;
76610;SDS011;65503;48.534;9.062;2023-08-21T11:52:54;7.88;;;5.35;;
76610;SDS011;65503;48.534;9.062;2023-08-21T11:55:21;9.57;;;6.07;;
76610;SDS011;65503;48.534;9.062;2023-08-21T11:57:48;9.32;;;6.15;;
76610;SDS011;65503;48.534;9.062;2023-08-21T12:00:16;9.70;;;5.40;;
76610;SDS011;65503;48.534;9.062;2023-08-21T12:02:58;8.20;;;5.25;;
76610;SDS011;65503;48.534;9.062;2023-08-21T12:05:27;11.88;;;5.93;;
76610;SDS011;65503;48.534;9.062;2023-08-21T12:07:55;12.82;;;5.35;;
76610;SDS011;65503;48.534;9.062;2023-08-21T12:10:25;9.60;;;5.40;;
76610;SDS011;65503;48.534;9.062;2023-08-21T12:12:53;10.90;;;5.47;;
76610;SDS011;65503;48.534;9.062;2023-08-21T12:15:20;9.70;;;5.10;;
76610;SDS011;65503;48.534;9.062;2023-08-21T12:17:46;8.70;;;5.30;;
76610;SDS011;65503;48.534;9.062;2023-08-21T12:20:13;10.30;;;5.57;;
76610;SDS011;65503;48.534;9.062;2023-08-21T12:22:40;8.68;;;5.03;;
76610;SDS011;65503;48.534;9.062;2023-08-21T12:25:10;8.63;;;4.95;;
76610;SDS011;65503;48.534;9.062;2023-08-21T12:27:37;7.28;;;5.22;;
76610;SDS011;65503;48.534;9.062;2023-08-21T12:30:05;8.75;;;5.57;;
76610;SDS011;65503;48.534;9.062;2023-08-21T12:32:33;7.03;;;4.82;;
76610;SDS011;65503;48.534;9.062;2023-08-21T12:35:00;10.32;;;5.95;;
76610;SDS011;65503;48.534;9.062;2023-08-21T12:37:26;7.65;;;4.75;;
76610;SDS011;65503;48.534;9.062;2023-08-21T12:39:53;8.55;;;4.85;;
76610;SDS011;65503;48.534;9.062;2023-08-21T12:42:20;8.32;;;5.30;;
76610;SDS011;65503;48.534;9.062;2023-08-21T12:44:46;10.93;;;5.32;;
76610;SDS011;65503;48.534;9.062;2023-08-21T12:47:13;11.23;;;5.03;;
76610;SDS011;65503;48.534;9.062;2023-08-21T12:49:39;8.90;;;5.10;;
76610;SDS011;65503;48.534;9.062;2023-08-21T12:52:06;8.80;;;5.32;;
76610;SDS011;65503;48.534;9.062;2023-08-21T12:54:36;7.68;;;4.80;;
76610;SDS011;65503;48.534;9.062;2023-08-21T12:57:02;7.43;;;5.45;;
76610;SDS011;65503;48.534;9.062;2023-08-21T12:59:29;11.07;;;5.07;;
76610;SDS011;65503;48.534;9.062;2023-08-21T13:01:58;8.43;;;5.70;;
76610;SDS011;65503;48.534;9.062;2023-08-21T13:04:26;8.30;;;5.38;;
76610;SDS011;65503;48.534;9.062;2023-08-21T13:06:53;8.25;;;5.00;;
76610;SDS011;65503;48.534;9.062;2023-08-21T13:09:20;7.60;;;4.47;;
76610;SDS011;65503;48.534;9.062;2023-08-21T13:11:47;8.73;;;5.57;;
76610;SDS011;65503;48.534;9.062;2023-08-21T13:14:14;8.32;;;5.45;;
76610;SDS011;65503;48.534;9.062;2023-08-21T13:16:40;9.93;;;5.50;;
76610;SDS011;65503;48.534;9.062;2023-08-21T13:19:07;8.73;;;5.32;;
76610;SDS011;65503;48.534;9.062;2023-08-21T13:21:33;8.38;;;5.22;;
76610;SDS011;65503;48.534;9.062;2023-08-21T13:24:00;8.02;;;5.80;;
76610;SDS011;65503;48.534;9.062;2023-08-21T13:26:29;8.23;;;5.55;;
76610;SDS011;65503;48.534;9.062;2023-08-21T13:28:57;8.32;;;5.60;;
76610;SDS011;65503;48.534;9.062;2023-08-21T13:31:24;8.25;;;5.78;;
76610;SDS011;65503;48.534;9.062;2023-08-21T13:33:50;7.35;;;5.50;;
76610;SDS011;65503;48.534;9.062;2023-08-21T13:36:17;9.13;;;5.20;;
76610;SDS011;65503;48.534;9.062;2023-08-21T13:38:45;9.20;;;5.65;;
76610;SDS011;65503;48.534;9.062;2023-08-21T13:41:11;11.52;;;5.60;;
76610;SDS011;65503;48.534;9.062;2023-08-21T13:43:38;10.68;;;5.45;;
76610;SDS011;65503;48.534;9.062;2023-08-21T13:46:06;9.25;;;5.10;;
76610;SDS011;65503;48.534;9.062;2023-08-21T13:48:33;10.27;;;5.50;;
76610;SDS011;65503;48.534;9.062;2023-08-21T13:51:00;6.13;;;4.60;;
76610;SDS011;65503;48.534;9.062;2023-08-21T13:53:27;9.57;;;4.95;;
76610;SDS011;65503;48.534;9.062;2023-08-21T13:55:53;7.88;;;5.93;;
76610;SDS011;65503;48.534;9.062;2023-08-21T13:58:20;8.00;;;5.25;;
76610;SDS011;65503;48.534;9.062;2023-08-21T14:00:47;9.13;;;5.80;;
76610;SDS011;65503;48.534;9.062;2023-08-21T14:03:14;7.25;;;4.57;;
76610;SDS011;65503;48.534;9.062;2023-08-21T14:05:40;8.55;;;4.82;;
76610;SDS011;65503;48.534;9.062;2023-08-21T14:08:07;9.43;;;4.70;;
76610;SDS011;65503;48.534;9.062;2023-08-21T14:10:34;7.25;;;4.30;;
76610;SDS011;65503;48.534;9.062;2023-08-21T14:13:01;9.00;;;5.38;;
76610;SDS011;65503;48.534;9.062;2023-08-21T14:15:29;7.78;;;4.88;;
76610;SDS011;65503;48.534;9.062;2023-08-21T14:17:56;7.85;;;5.35;;
76610;SDS011;65503;48.534;9.062;2023-08-21T14:20:23;9.52;;;5.32;;
76610;SDS011;65503;48.534;9.062;2023-08-21T14:22:49;10.50;;;4.78;;
76610;SDS011;65503;48.534;9.062;2023-08-21T14:25:16;7.95;;;4.88;;
76610;SDS011;65503;48.534;9.062;2023-08-21T14:27:43;7.88;;;5.10;;
76610;SDS011;65503;48.534;9.062;2023-08-21T14:30:10;7.25;;;5.18;;
76610;SDS011;65503;48.534;9.062;2023-08-21T14:32:37;9.32;;;5.68;;
76610;SDS011;65503;48.534;9.062;2023-08-21T14:35:04;9.52;;;4.85;;
76610;SDS011;65503;48.534;9.062;2023-08-21T14:37:34;8.35;;;4.93;;
76610;SDS011;65503;48.534;9.062;2023-08-21T14:40:01;7.05;;;5.35;;
76610;SDS011;65503;48.534;9.062;2023-08-21T14:42:32;10.82;;;5.45;;
76610;SDS011;65503;48.534;9.062;2023-08-21T14:44:59;9.38;;;5.93;;
76610;SDS011;65503;48.534;9.062;2023-08-21T14:47:26;7.45;;;5.10;;
76610;SDS011;65503;48.534;9.062;2023-08-21T14:49:53;10.02;;;5.65;;
76610;SDS011;65503;48.534;9.062;2023-08-21T14:52:19;10.07;;;4.55;;
76610;SDS011;65503;48.534;9.062;2023-08-21T14:54:48;9.15;;;5.78;;
76610;SDS011;65503;48.534;9.062;2023-08-21T14:57:16;9.82;;;5.85;;
76610;SDS011;65503;48.534;9.062;2023-08-21T14:59:43;11.10;;;5.07;;
76610;SDS011;65503;48.534;9.062;2023-08-21T15:02:09;9.35;;;5.95;;
76610;SDS011;65503;48.534;9.062;2023-08-21T15:04:36;8.73;;;5.35;;
76610;SDS011;65503;48.534;9.062;2023-08-21T15:07:03;8.70;;;4.95;;
76610;SDS011;65503;48.534;9.062;2023-08-21T15:09:29;6.90;;;5.13;;
76610;SDS011;65503;48.534;9.062;2023-08-21T15:11:56;10.40;;;6.45;;